Time;durP1;ratioP1;P1;durP2;ratioP2;P2;SDS_P1;SDS_P2;PMS_P1;PMS_P2;Temp;Humidity;BMP_temperature;BMP_pressure;BME280_temperature;BME280_humidity;BME280_pressure;Samples;Min_cycle;Max_cycle;Signal;HPM_P1;HPM_P2
2023/10/28 00:00:51;;;;;;;8.00;5.07;;;;;;;;;;5103093;28;20307;-52
2023/10/28 00:03:18;;;;;;;9.93;4.65;;;;;;;;;;5104325;28;20044;-57
2023/10/28 00:05:44;;;;;;;7.55;4.32;;;;;;;;;;5102775;28;20026;-52
2023/10/28 00:08:11;;;;;;;8.27;5.80;;;;;;;;;;5101359;28;20356;-54
2023/10/28 00:10:40;;;;;;;9.55;6.28;;;;;;;;;;5102521;28;20091;-54
2023/10/28 00:13:11;;;;;;;8.68;5.78;;;;;;;;;;5102925;28;20040;-57
2023/10/28 00:15:39;;;;;;;6.55;5.38;;;;;;;;;;5104082;28;20016;-53
2023/10/28 00:18:06;;;;;;;8.50;4.53;;;;;;;;;;5103670;28;20228;-57
2023/10/28 00:20:34;;;;;;;6.70;3.90;;;;;;;;;;5103008;28;20036;-53
2023/10/28 00:23:03;;;;;;;7.97;3.70;;;;;;;;;;5103042;28;20016;-51
2023/10/28 00:25:31;;;;;;;7.38;3.17;;;;;;;;;;5103662;28;20020;-52
2023/10/28 00:27:58;;;;;;;8.82;3.28;;;;;;;;;;5107254;28;20102;-54
2023/10/28 00:30:26;;;;;;;4.50;2.53;;;;;;;;;;5107771;28;20012;-54
2023/10/28 00:32:53;;;;;;;4.38;2.13;;;;;;;;;;5107228;28;20035;-47
2023/10/28 00:35:22;;;;;;;4.18;2.05;;;;;;;;;;5107666;28;20208;-52
2023/10/28 00:37:49;;;;;;;6.55;1.90;;;;;;;;;;5107545;28;20030;-48
2023/10/28 00:40:17;;;;;;;6.25;1.70;;;;;;;;;;5107339;28;20039;-52
2023/10/28 00:42:45;;;;;;;3.28;1.83;;;;;;;;;;5113441;28;20046;-53
2023/10/28 00:45:13;;;;;;;4.45;1.95;;;;;;;;;;5128292;28;20024;-52
2023/10/28 00:47:41;;;;;;;5.00;1.65;;;;;;;;;;5127797;28;20073;-55
2023/10/28 00:50:15;;;;;;;3.38;1.60;;;;;;;;;;5128453;28;20061;-54
2023/10/28 00:52:45;;;;;;;5.40;1.67;;;;;;;;;;5127782;28;20023;-54
2023/10/28 00:55:13;;;;;;;5.22;1.60;;;;;;;;;;5147237;27;20041;-50
2023/10/28 00:57:41;;;;;;;4.53;1.73;;;;;;;;;;5148210;27;20021;-55
2023/10/28 01:00:08;;;;;;;2.55;1.33;;;;;;;;;;5148641;27;20025;-58
2023/10/28 01:02:42;;;;;;;4.10;1.40;;;;;;;;;;5129585;27;20019;-58
2023/10/28 01:05:13;;;;;;;7.57;1.50;;;;;;;;;;5129844;27;20094;-58
2023/10/28 01:07:41;;;;;;;4.23;1.47;;;;;;;;;;5147812;27;20023;-58
2023/10/28 01:10:08;;;;;;;4.60;1.75;;;;;;;;;;5148275;27;20541;-59
2023/10/28 01:12:35;;;;;;;2.70;1.30;;;;;;;;;;5147954;27;20011;-59
2023/10/28 01:15:03;;;;;;;15.27;1.98;;;;;;;;;;5148106;27;20090;-58
2023/10/28 01:17:29;;;;;;;25.27;4.28;;;;;;;;;;5147801;27;20303;-57
2023/10/28 01:19:56;;;;;;;13.43;3.08;;;;;;;;;;5147553;27;20192;-57
2023/10/28 01:22:26;;;;;;;14.63;3.63;;;;;;;;;;5147401;27;20319;-48
2023/10/28 01:24:53;;;;;;;11.45;3.92;;;;;;;;;;5148017;27;20053;-48
2023/10/28 01:27:20;;;;;;;14.18;3.10;;;;;;;;;;5147500;27;20030;-54
2023/10/28 01:29:47;;;;;;;6.25;2.60;;;;;;;;;;5147642;27;20031;-51
2023/10/28 01:32:14;;;;;;;6.35;2.42;;;;;;;;;;5147289;27;20199;-51
2023/10/28 01:34:48;;;;;;;5.45;1.85;;;;;;;;;;5147249;27;20245;-49
2023/10/28 01:37:18;;;;;;;7.45;1.92;;;;;;;;;;5147354;27;20023;-51
2023/10/28 01:39:50;;;;;;;24.05;2.50;;;;;;;;;;5147243;27;20226;-50
2023/10/28 01:42:17;;;;;;;10.43;2.37;;;;;;;;;;5147184;27;20023;-51
2023/10/28 01:44:45;;;;;;;4.85;2.03;;;;;;;;;;5147792;27;20299;-52
2023/10/28 01:47:13;;;;;;;7.50;2.00;;;;;;;;;;5147301;27;20210;-50
2023/10/28 01:52:31;;;;;;;5.25;1.88;;;;;;;;;;5147127;27;20021;-53
2023/10/28 01:54:58;;;;;;;6.45;2.28;;;;;;;;;;5147666;27;20069;-47
2023/10/28 01:57:28;;;;;;;4.85;1.98;;;;;;;;;;5147293;27;20330;-52
2023/10/28 01:59:58;;;;;;;4.07;1.98;;;;;;;;;;5147560;27;20030;-53
2023/10/28 02:02:24;;;;;;;6.70;1.60;;;;;;;;;;5128490;27;20063;-49
2023/10/28 02:04:51;;;;;;;3.72;1.70;;;;;;;;;;5147496;27;20049;-54
2023/10/28 02:07:19;;;;;;;6.80;1.88;;;;;;;;;;5128752;27;20056;-52
2023/10/28 02:09:48;;;;;;;4.53;1.58;;;;;;;;;;5128545;27;20035;-55
2023/10/28 02:12:14;;;;;;;5.07;1.50;;;;;;;;;;5147303;27;20061;-53
2023/10/28 02:14:43;;;;;;;7.57;1.70;;;;;;;;;;5147366;27;20019;-55
2023/10/28 02:17:10;;;;;;;3.50;1.65;;;;;;;;;;5146728;27;20064;-49
2023/10/28 02:19:38;;;;;;;3.55;1.83;;;;;;;;;;5146611;27;20331;-54
2023/10/28 02:22:06;;;;;;;5.00;1.67;;;;;;;;;;5146990;27;20021;-55
2023/10/28 02:24:35;;;;;;;8.38;1.98;;;;;;;;;;5146915;27;20348;-56
2023/10/28 02:27:02;;;;;;;5.63;1.60;;;;;;;;;;5146451;27;20011;-53
2023/10/28 02:29:30;;;;;;;4.10;1.52;;;;;;;;;;5147149;27;20023;-52
2023/10/28 02:31:56;;;;;;;6.57;1.50;;;;;;;;;;5146148;27;20030;-58
2023/10/28 02:34:23;;;;;;;5.18;1.65;;;;;;;;;;5140770;27;20030;-45
2023/10/28 02:36:50;;;;;;;4.70;1.48;;;;;;;;;;5125942;28;20257;-45
2023/10/28 02:39:17;;;;;;;5.13;1.38;;;;;;;;;;5125905;28;20038;-55
2023/10/28 02:41:44;;;;;;;7.45;1.65;;;;;;;;;;5125459;28;20018;-51
2023/10/28 02:44:10;;;;;;;5.05;1.75;;;;;;;;;;5116896;28;20335;-55
2023/10/28 02:46:38;;;;;;;6.68;1.60;;;;;;;;;;5124434;28;20031;-51
2023/10/28 02:49:05;;;;;;;4.88;1.60;;;;;;;;;;5107579;28;20031;-50
2023/10/28 02:51:32;;;;;;;5.65;1.77;;;;;;;;;;5124645;28;20027;-50
2023/10/28 02:53:59;;;;;;;8.70;1.65;;;;;;;;;;5116927;28;20043;-48
2023/10/28 02:56:26;;;;;;;10.25;1.70;;;;;;;;;;5125213;28;20016;-53
2023/10/28 02:58:52;;;;;;;7.30;1.60;;;;;;;;;;5117048;28;20016;-51
2023/10/28 03:01:19;;;;;;;7.78;1.75;;;;;;;;;;5125333;28;20035;-53
2023/10/28 03:03:46;;;;;;;5.60;1.42;;;;;;;;;;5117472;28;20342;-53
2023/10/28 03:06:13;;;;;;;5.97;1.83;;;;;;;;;;5125032;28;20033;-51
2023/10/28 03:08:39;;;;;;;4.45;1.50;;;;;;;;;;5118353;28;20032;-53
2023/10/28 03:11:06;;;;;;;3.78;1.50;;;;;;;;;;5123758;28;20023;-52
2023/10/28 03:13:40;;;;;;;4.35;1.20;;;;;;;;;;5119637;28;20040;-50
2023/10/28 03:16:08;;;;;;;5.13;1.30;;;;;;;;;;5123986;28;20020;-57
2023/10/28 03:18:35;;;;;;;5.13;1.27;;;;;;;;;;5118618;28;20028;-53
2023/10/28 03:21:01;;;;;;;7.25;1.40;;;;;;;;;;5122881;28;20038;-54
2023/10/28 03:23:28;;;;;;;6.85;1.50;;;;;;;;;;5119367;28;20023;-54
2023/10/28 03:25:55;;;;;;;4.80;1.40;;;;;;;;;;5122595;28;20027;-54
2023/10/28 03:28:22;;;;;;;5.15;1.60;;;;;;;;;;5120351;28;20047;-55
2023/10/28 03:30:48;;;;;;;7.18;1.30;;;;;;;;;;5121099;28;20019;-54
2023/10/28 03:33:15;;;;;;;5.88;1.35;;;;;;;;;;5121513;28;20070;-51
2023/10/28 03:35:42;;;;;;;6.45;1.30;;;;;;;;;;5119969;28;20074;-54
2023/10/28 03:38:09;;;;;;;7.03;1.30;;;;;;;;;;5121825;28;20019;-55
2023/10/28 03:40:38;;;;;;;5.25;1.30;;;;;;;;;;5119326;28;20073;-54
2023/10/28 03:43:04;;;;;;;5.25;1.40;;;;;;;;;;5122554;28;20036;-54
2023/10/28 03:45:31;;;;;;;3.20;1.33;;;;;;;;;;5118286;28;20023;-54
2023/10/28 03:47:58;;;;;;;3.67;1.20;;;;;;;;;;5123389;28;20015;-55
2023/10/28 03:50:25;;;;;;;4.82;1.40;;;;;;;;;;5117654;28;20027;-53
2023/10/28 03:52:52;;;;;;;3.85;1.20;;;;;;;;;;5124174;28;20015;-53
2023/10/28 03:55:20;;;;;;;7.78;1.40;;;;;;;;;;5117203;28;20019;-55
2023/10/28 03:58:07;;;;;;;5.20;1.30;;;;;;;;;;5124993;28;20053;-57
2023/10/28 04:00:33;;;;;;;7.05;1.52;;;;;;;;;;5119215;28;20020;-54
2023/10/28 04:03:00;;;;;;;3.28;1.30;;;;;;;;;;5126223;28;20215;-55
2023/10/28 04:05:27;;;;;;;3.03;1.27;;;;;;;;;;5110231;28;20023;-57
2023/10/28 04:07:54;;;;;;;7.18;1.48;;;;;;;;;;5129017;28;20031;-48
2023/10/28 04:10:21;;;;;;;4.90;1.75;;;;;;;;;;5124228;28;20031;-52
2023/10/28 04:12:48;;;;;;;2.55;1.27;;;;;;;;;;5124722;28;20015;-59
2023/10/28 04:15:16;;;;;;;4.90;1.20;;;;;;;;;;5125144;28;20024;-57
2023/10/28 04:17:43;;;;;;;2.90;1.60;;;;;;;;;;5123977;28;20024;-55
2023/10/28 04:20:10;;;;;;;3.53;1.30;;;;;;;;;;5125453;28;20084;-53
2023/10/28 04:22:37;;;;;;;5.13;1.58;;;;;;;;;;5109556;28;20040;-61
2023/10/28 04:25:05;;;;;;;8.10;1.73;;;;;;;;;;5114024;28;20047;-63
2023/10/28 04:27:35;;;;;;;7.38;1.52;;;;;;;;;;5114132;27;20027;-62
2023/10/28 04:30:04;;;;;;;4.80;1.70;;;;;;;;;;5106119;28;20024;-63
2023/10/28 04:32:32;;;;;;;5.13;1.70;;;;;;;;;;5093380;28;20077;-65
2023/10/28 04:34:58;;;;;;;5.78;1.45;;;;;;;;;;5106742;28;20327;-64
2023/10/28 04:37:26;;;;;;;4.03;1.70;;;;;;;;;;5093263;28;20323;-60
2023/10/28 04:39:53;;;;;;;2.67;1.60;;;;;;;;;;5107503;28;20364;-60
2023/10/28 04:42:19;;;;;;;2.58;1.67;;;;;;;;;;5099499;28;20024;-62
2023/10/28 04:44:46;;;;;;;4.13;1.40;;;;;;;;;;5106060;28;20024;-61
2023/10/28 04:47:13;;;;;;;1.95;1.40;;;;;;;;;;5117883;28;20036;-62
2023/10/28 04:49:41;;;;;;;2.80;1.75;;;;;;;;;;5126246;28;20019;-63
2023/10/28 04:52:10;;;;;;;1.60;1.30;;;;;;;;;;5137995;27;20026;-63
2023/10/28 04:54:40;;;;;;;2.47;1.67;;;;;;;;;;5146860;27;20034;-63
2023/10/28 04:57:09;;;;;;;2.65;1.67;;;;;;;;;;5103733;28;20020;-63
2023/10/28 04:59:35;;;;;;;1.80;1.55;;;;;;;;;;5107585;28;20031;-62
2023/10/28 05:04:30;;;;;;;4.65;1.58;;;;;;;;;;5103019;27;20390;-61
2023/10/28 05:06:57;;;;;;;2.13;1.80;;;;;;;;;;5101679;28;20088;-62
2023/10/28 05:09:23;;;;;;;5.15;2.10;;;;;;;;;;5101575;28;20035;-62
2023/10/28 05:11:54;;;;;;;3.92;2.00;;;;;;;;;;5101290;28;20032;-62
2023/10/28 05:14:24;;;;;;;2.88;1.70;;;;;;;;;;5101342;28;20036;-62
2023/10/28 05:19:25;;;;;;;3.00;2.08;;;;;;;;;;5018438;28;20390;-62
2023/10/28 05:21:52;;;;;;;3.25;1.88;;;;;;;;;;5017987;28;20071;-62
2023/10/28 05:24:19;;;;;;;6.50;2.10;;;;;;;;;;5018144;28;20029;-63
2023/10/28 05:26:46;;;;;;;3.75;1.73;;;;;;;;;;5018201;28;20488;-61
2023/10/28 05:29:12;;;;;;;2.75;1.83;;;;;;;;;;5018378;28;20048;-63
2023/10/28 05:31:39;;;;;;;2.78;2.00;;;;;;;;;;5017927;28;20202;-62
2023/10/28 05:34:05;;;;;;;4.38;1.95;;;;;;;;;;5018159;28;20018;-62
2023/10/28 05:36:32;;;;;;;4.38;1.90;;;;;;;;;;5017943;28;20057;-63
2023/10/28 05:38:59;;;;;;;4.10;2.00;;;;;;;;;;5018215;28;20209;-63
2023/10/28 05:41:25;;;;;;;4.25;2.10;;;;;;;;;;5017714;28;20025;-63
2023/10/28 05:43:52;;;;;;;3.30;1.80;;;;;;;;;;5018101;28;20061;-64
2023/10/28 05:46:22;;;;;;;3.85;1.70;;;;;;;;;;5017748;28;20022;-63
2023/10/28 05:48:52;;;;;;;3.80;1.98;;;;;;;;;;5018021;28;20030;-63
2023/10/28 05:51:19;;;;;;;3.45;2.00;;;;;;;;;;5017737;28;20038;-63
2023/10/28 05:53:45;;;;;;;3.97;2.03;;;;;;;;;;5018060;28;20187;-64
2023/10/28 05:56:12;;;;;;;3.78;2.10;;;;;;;;;;5017483;28;20030;-64
2023/10/28 05:58:39;;;;;;;5.30;2.15;;;;;;;;;;5013224;28;20045;-64
2023/10/28 06:01:05;;;;;;;4.97;2.00;;;;;;;;;;5013655;28;20055;-64
2023/10/28 06:03:32;;;;;;;3.40;1.75;;;;;;;;;;5017729;28;20026;-65
2023/10/28 06:05:58;;;;;;;5.00;2.00;;;;;;;;;;5016099;28;20041;-66
2023/10/28 06:08:25;;;;;;;3.40;1.45;;;;;;;;;;5010592;28;20191;-65
2023/10/28 06:10:52;;;;;;;4.28;1.80;;;;;;;;;;5017306;28;20053;-65
2023/10/28 06:13:19;;;;;;;3.17;1.63;;;;;;;;;;5017637;28;20034;-64
2023/10/28 06:15:46;;;;;;;5.13;1.77;;;;;;;;;;5017281;28;20022;-64
2023/10/28 06:18:13;;;;;;;2.78;2.08;;;;;;;;;;5016854;28;20114;-64
2023/10/28 06:20:40;;;;;;;5.82;1.80;;;;;;;;;;5017180;28;20313;-64
2023/10/28 06:23:06;;;;;;;2.40;1.83;;;;;;;;;;5017311;28;20018;-64
2023/10/28 06:25:36;;;;;;;3.60;1.60;;;;;;;;;;5017064;28;20032;-65
2023/10/28 06:28:05;;;;;;;2.25;2.00;;;;;;;;;;5017281;28;20038;-64
2023/10/28 06:30:33;;;;;;;7.25;2.15;;;;;;;;;;5004894;28;20030;-65
2023/10/28 06:33:01;;;;;;;4.32;1.73;;;;;;;;;;5004120;28;20344;-65
2023/10/28 06:35:27;;;;;;;4.93;1.75;;;;;;;;;;5003864;28;20033;-66
2023/10/28 06:37:54;;;;;;;4.05;1.83;;;;;;;;;;5004041;28;20023;-65
2023/10/28 06:40:20;;;;;;;4.35;1.60;;;;;;;;;;5003758;28;20027;-64
2023/10/28 06:42:47;;;;;;;4.88;1.70;;;;;;;;;;5003993;28;20031;-65
2023/10/28 06:45:14;;;;;;;3.70;1.85;;;;;;;;;;5003699;28;20143;-64
2023/10/28 06:47:41;;;;;;;3.13;2.00;;;;;;;;;;5003822;28;20041;-64
2023/10/28 06:50:08;;;;;;;4.00;1.90;;;;;;;;;;5003677;28;20041;-64
2023/10/28 06:52:36;;;;;;;3.10;1.67;;;;;;;;;;5003832;28;20022;-62
2023/10/28 06:55:03;;;;;;;5.03;2.03;;;;;;;;;;5003525;28;20064;-63
2023/10/28 06:57:30;;;;;;;4.13;1.88;;;;;;;;;;5003832;28;20038;-64
2023/10/28 06:59:58;;;;;;;4.93;1.92;;;;;;;;;;5003536;28;20020;-64
2023/10/28 07:02:25;;;;;;;5.00;1.52;;;;;;;;;;5003477;28;20022;-64
2023/10/28 07:04:51;;;;;;;2.70;1.70;;;;;;;;;;5003493;28;20060;-63
2023/10/28 07:07:18;;;;;;;3.70;1.73;;;;;;;;;;5003537;28;20026;-63
2023/10/28 07:09:45;;;;;;;1.92;1.50;;;;;;;;;;5003366;28;20028;-64
2023/10/28 07:12:12;;;;;;;6.50;2.20;;;;;;;;;;5003332;28;20034;-63
2023/10/28 07:14:39;;;;;;;3.58;1.92;;;;;;;;;;5003292;28;20022;-63
2023/10/28 07:17:05;;;;;;;7.97;2.13;;;;;;;;;;5002952;28;20050;-63
2023/10/28 07:19:32;;;;;;;5.78;1.73;;;;;;;;;;5003332;28;20030;-63
2023/10/28 07:21:58;;;;;;;4.50;1.65;;;;;;;;;;5003180;28;20019;-64
2023/10/28 07:24:25;;;;;;;2.25;1.70;;;;;;;;;;5003096;28;20022;-65
2023/10/28 07:26:52;;;;;;;5.95;1.90;;;;;;;;;;5003106;28;20026;-64
2023/10/28 07:29:18;;;;;;;3.38;2.08;;;;;;;;;;5003195;28;20027;-64
2023/10/28 07:31:45;;;;;;;4.63;1.90;;;;;;;;;;5002964;28;20018;-64
2023/10/28 07:34:12;;;;;;;2.88;1.80;;;;;;;;;;5003415;28;20040;-65
2023/10/28 07:36:38;;;;;;;4.22;1.67;;;;;;;;;;5003170;28;20209;-64
2023/10/28 07:39:05;;;;;;;6.93;1.70;;;;;;;;;;5003255;28;20018;-64
2023/10/28 07:41:32;;;;;;;2.67;1.75;;;;;;;;;;5001925;28;20326;-64
2023/10/28 07:43:58;;;;;;;3.80;1.50;;;;;;;;;;5003335;28;20294;-64
2023/10/28 07:46:30;;;;;;;3.00;2.00;;;;;;;;;;5002877;28;20042;-64
2023/10/28 07:48:56;;;;;;;4.15;1.65;;;;;;;;;;5003232;28;20109;-63
2023/10/28 07:51:24;;;;;;;5.22;1.80;;;;;;;;;;5002784;28;20113;-63
2023/10/28 07:53:52;;;;;;;7.95;2.20;;;;;;;;;;5003026;28;20026;-63
2023/10/28 07:56:19;;;;;;;2.60;1.73;;;;;;;;;;5002647;28;20041;-64
2023/10/28 07:58:47;;;;;;;3.80;1.70;;;;;;;;;;5003004;28;20022;-63
2023/10/28 08:01:17;;;;;;;7.68;1.90;;;;;;;;;;5002519;28;20026;-63
2023/10/28 08:03:44;;;;;;;4.95;2.05;;;;;;;;;;5002920;28;20382;-64
2023/10/28 08:06:11;;;;;;;7.75;2.00;;;;;;;;;;5002613;28;20240;-64
2023/10/28 08:08:38;;;;;;;7.57;2.00;;;;;;;;;;5002884;28;20092;-65
2023/10/28 08:11:08;;;;;;;3.95;1.90;;;;;;;;;;5002416;28;20097;-65
2023/10/28 08:13:38;;;;;;;4.68;2.08;;;;;;;;;;5002887;28;20050;-65
2023/10/28 08:16:09;;;;;;;3.42;1.90;;;;;;;;;;5002257;28;20226;-65
2023/10/28 08:18:40;;;;;;;3.33;1.80;;;;;;;;;;5002178;28;20342;-64
2023/10/28 08:21:09;;;;;;;4.63;2.03;;;;;;;;;;5002357;28;20226;-65
2023/10/28 08:23:39;;;;;;;4.03;1.45;;;;;;;;;;5002627;28;20319;-64
2023/10/28 08:26:12;;;;;;;4.80;2.03;;;;;;;;;;5002217;28;20019;-65
2023/10/28 08:28:39;;;;;;;5.90;2.15;;;;;;;;;;5000042;28;20057;-65
2023/10/28 08:31:12;;;;;;;6.90;1.75;;;;;;;;;;5002172;28;20038;-65
2023/10/28 08:33:41;;;;;;;3.00;1.50;;;;;;;;;;5002471;28;20210;-65
2023/10/28 08:36:09;;;;;;;4.22;1.80;;;;;;;;;;4997601;28;20098;-65
2023/10/28 08:38:36;;;;;;;5.05;1.95;;;;;;;;;;4990890;28;20035;-64
2023/10/28 08:41:05;;;;;;;4.00;1.90;;;;;;;;;;4982539;28;20196;-64
2023/10/28 08:43:35;;;;;;;7.05;1.75;;;;;;;;;;4982738;28;20019;-66
2023/10/28 08:46:04;;;;;;;5.68;1.50;;;;;;;;;;4982516;28;20041;-65
2023/10/28 08:48:30;;;;;;;7.57;1.98;;;;;;;;;;4982763;28;20034;-65
2023/10/28 08:51:00;;;;;;;3.78;1.85;;;;;;;;;;4982500;28;20255;-65
2023/10/28 08:53:28;;;;;;;5.57;1.80;;;;;;;;;;4982390;28;20096;-64
2023/10/28 08:56:00;;;;;;;4.07;1.90;;;;;;;;;;4982207;28;20027;-63
2023/10/28 08:58:27;;;;;;;8.30;1.70;;;;;;;;;;4982645;28;20076;-63
2023/10/28 09:00:59;;;;;;;3.75;2.00;;;;;;;;;;4982349;28;20372;-62
2023/10/28 09:03:26;;;;;;;5.35;1.88;;;;;;;;;;4982426;28;20068;-62
2023/10/28 09:05:53;;;;;;;4.43;1.80;;;;;;;;;;4982324;28;20326;-62
2023/10/28 09:08:24;;;;;;;4.80;1.67;;;;;;;;;;4982629;28;20042;-62
2023/10/28 09:10:51;;;;;;;11.43;2.00;;;;;;;;;;4982038;28;20247;-63
2023/10/28 09:13:17;;;;;;;4.57;1.48;;;;;;;;;;4982607;28;20031;-64
2023/10/28 09:15:46;;;;;;;3.05;1.63;;;;;;;;;;4982133;28;20094;-64
2023/10/28 09:18:12;;;;;;;5.43;1.67;;;;;;;;;;4981650;28;20228;-63
2023/10/28 09:20:40;;;;;;;4.40;1.83;;;;;;;;;;4982135;28;20023;-63
2023/10/28 09:23:06;;;;;;;4.13;1.70;;;;;;;;;;4982261;28;20250;-63
2023/10/28 09:25:34;;;;;;;7.65;1.95;;;;;;;;;;4981819;28;20026;-63
2023/10/28 09:28:03;;;;;;;5.40;1.70;;;;;;;;;;4982201;28;20306;-63
2023/10/28 09:30:29;;;;;;;5.95;1.80;;;;;;;;;;4981865;28;20027;-63
2023/10/28 09:32:57;;;;;;;5.70;2.00;;;;;;;;;;4981840;28;20035;-64
2023/10/28 09:35:25;;;;;;;4.93;1.75;;;;;;;;;;4980732;28;20254;-64
2023/10/28 09:37:53;;;;;;;7.32;2.17;;;;;;;;;;4982147;28;20255;-63
2023/10/28 09:40:20;;;;;;;6.18;2.00;;;;;;;;;;4981711;28;20271;-63
2023/10/28 09:42:48;;;;;;;4.18;1.80;;;;;;;;;;4982077;28;20072;-63
2023/10/28 09:45:16;;;;;;;4.95;1.85;;;;;;;;;;4981783;28;20034;-63
2023/10/28 09:47:56;;;;;;;3.25;1.60;;;;;;;;;;4981755;28;20277;-63
2023/10/28 09:50:27;;;;;;;7.45;1.90;;;;;;;;;;4981740;28;20027;-63
2023/10/28 09:52:54;;;;;;;5.72;1.60;;;;;;;;;;4981639;28;20362;-63
2023/10/28 09:55:24;;;;;;;6.95;1.90;;;;;;;;;;4981726;28;20283;-63
2023/10/28 09:57:52;;;;;;;2.65;1.75;;;;;;;;;;4981721;28;20103;-64
2023/10/28 10:00:19;;;;;;;4.40;1.55;;;;;;;;;;4981717;28;20023;-64
2023/10/28 10:03:12;;;;;;;4.18;1.50;;;;;;;;;;4981688;28;20027;-63
2023/10/28 10:05:45;;;;;;;8.25;2.20;;;;;;;;;;5003830;28;20121;-63
2023/10/28 10:08:38;;;;;;;4.90;1.90;;;;;;;;;;5004561;28;20042;-62
2023/10/28 10:11:06;;;;;;;4.22;1.60;;;;;;;;;;5006406;28;20066;-63
2023/10/28 10:13:42;;;;;;;5.90;2.00;;;;;;;;;;5004575;28;20046;-63
2023/10/28 10:16:13;;;;;;;6.13;1.80;;;;;;;;;;5003955;28;20331;-64
2023/10/28 10:18:44;;;;;;;7.25;1.77;;;;;;;;;;5004001;28;20050;-64
2023/10/28 10:21:18;;;;;;;8.23;1.83;;;;;;;;;;5003952;28;20034;-63
2023/10/28 10:23:46;;;;;;;5.93;1.60;;;;;;;;;;5004571;28;20061;-64
2023/10/28 10:26:25;;;;;;;11.05;2.20;;;;;;;;;;5004075;28;20030;-64
2023/10/28 10:28:53;;;;;;;7.05;2.05;;;;;;;;;;5002991;28;20347;-63
2023/10/28 10:31:22;;;;;;;5.25;1.75;;;;;;;;;;5004174;28;20045;-62
2023/10/28 10:34:02;;;;;;;6.90;1.75;;;;;;;;;;5004336;28;20045;-63
2023/10/28 10:36:40;;;;;;;5.65;1.65;;;;;;;;;;5004090;28;20061;-63
2023/10/28 10:39:20;;;;;;;7.55;1.50;;;;;;;;;;5003605;28;20331;-63
2023/10/28 10:41:53;;;;;;;5.43;1.70;;;;;;;;;;5003843;28;20219;-63
2023/10/28 10:44:38;;;;;;;6.40;2.08;;;;;;;;;;5003677;28;20042;-64
2023/10/28 10:47:05;;;;;;;3.85;1.60;;;;;;;;;;5003738;28;20060;-63
2023/10/28 10:49:32;;;;;;;6.65;1.63;;;;;;;;;;5003754;28;20061;-64
2023/10/28 10:52:00;;;;;;;6.65;1.55;;;;;;;;;;5003808;28;20087;-63
2023/10/28 10:54:31;;;;;;;5.88;1.90;;;;;;;;;;5004280;28;20054;-64
2023/10/28 10:57:01;;;;;;;7.35;1.80;;;;;;;;;;5004038;28;20046;-63
2023/10/28 10:59:32;;;;;;;6.03;2.20;;;;;;;;;;5003897;28;20030;-62
2023/10/28 11:02:02;;;;;;;5.90;2.42;;;;;;;;;;5003498;28;20026;-64
2023/10/28 11:04:34;;;;;;;9.18;2.13;;;;;;;;;;5003471;28;20030;-64
2023/10/28 11:07:02;;;;;;;8.02;2.10;;;;;;;;;;5003686;28;20026;-67
2023/10/28 11:09:33;;;;;;;8.32;1.92;;;;;;;;;;5003402;28;20037;-64
2023/10/28 11:12:00;;;;;;;8.10;1.80;;;;;;;;;;5003954;28;20035;-65
2023/10/28 11:14:27;;;;;;;6.53;1.98;;;;;;;;;;5004502;28;20337;-63
2023/10/28 11:16:54;;;;;;;6.90;1.73;;;;;;;;;;5003475;28;20333;-62
2023/10/28 11:19:21;;;;;;;9.68;2.58;;;;;;;;;;5003695;28;20046;-63
2023/10/28 11:21:48;;;;;;;12.10;2.50;;;;;;;;;;5003649;28;20034;-63
2023/10/28 11:24:16;;;;;;;8.85;2.17;;;;;;;;;;5003331;28;20037;-62
2023/10/28 11:26:46;;;;;;;5.78;2.20;;;;;;;;;;5003231;28;20086;-60
2023/10/28 11:29:15;;;;;;;6.07;2.88;;;;;;;;;;5003326;28;20042;-56
2023/10/28 11:31:41;;;;;;;11.88;4.53;;;;;;;;;;5003229;28;20026;-47
2023/10/28 11:34:08;;;;;;;28.15;4.28;;;;;;;;;;5003423;28;20114;-47
2023/10/28 11:36:35;;;;;;;12.25;3.42;;;;;;;;;;5003096;28;20028;-44
2023/10/28 11:39:13;;;;;;;13.18;3.17;;;;;;;;;;5000224;28;20067;-49
2023/10/28 11:44:04;;;;;;;14.02;3.10;;;;;;;;;;5122848;27;20429;-53
2023/10/28 11:46:31;;;;;;;16.55;2.95;;;;;;;;;;5122825;28;20028;-47
2023/10/28 11:48:57;;;;;;;9.48;2.58;;;;;;;;;;5122028;28;20020;-44
2023/10/28 11:51:25;;;;;;;7.55;2.42;;;;;;;;;;5121955;28;20027;-45
2023/10/28 11:53:53;;;;;;;8.38;2.40;;;;;;;;;;5121800;28;20121;-47
2023/10/28 11:56:20;;;;;;;7.60;2.22;;;;;;;;;;5121859;28;20039;-48
2023/10/28 11:58:49;;;;;;;10.07;2.20;;;;;;;;;;5122980;28;20023;-43
2023/10/28 12:01:15;;;;;;;8.27;2.40;;;;;;;;;;5121701;28;20328;-46
2023/10/28 12:03:42;;;;;;;7.75;2.10;;;;;;;;;;5121965;28;20028;-46
2023/10/28 12:06:08;;;;;;;6.60;2.00;;;;;;;;;;5119781;28;20308;-50
2023/10/28 12:08:35;;;;;;;5.82;2.17;;;;;;;;;;5099024;28;20081;-54
2023/10/28 12:11:02;;;;;;;8.15;2.10;;;;;;;;;;5121451;28;20028;-56
2023/10/28 12:13:31;;;;;;;3.10;1.70;;;;;;;;;;5119034;28;20032;-52
2023/10/28 12:15:58;;;;;;;5.75;2.13;;;;;;;;;;5102600;28;20051;-54
2023/10/28 12:18:24;;;;;;;8.10;1.85;;;;;;;;;;5112549;28;20051;-57
2023/10/28 12:20:51;;;;;;;5.22;1.70;;;;;;;;;;5121292;28;20020;-54
2023/10/28 12:23:18;;;;;;;6.43;1.50;;;;;;;;;;5121524;28;20059;-54
2023/10/28 12:25:47;;;;;;;5.35;1.77;;;;;;;;;;5103568;28;20023;-54
2023/10/28 12:28:14;;;;;;;9.10;1.52;;;;;;;;;;5121112;28;20065;-55
2023/10/28 12:30:41;;;;;;;4.00;1.38;;;;;;;;;;5121189;28;20043;-54
2023/10/28 12:33:09;;;;;;;4.72;1.35;;;;;;;;;;5121381;28;20068;-57
2023/10/28 12:35:36;;;;;;;4.43;1.60;;;;;;;;;;5121450;28;20047;-56
2023/10/28 12:38:03;;;;;;;4.32;1.75;;;;;;;;;;5121925;28;20038;-54
2023/10/28 12:40:30;;;;;;;4.55;1.60;;;;;;;;;;5121137;28;20028;-56
2023/10/28 12:42:57;;;;;;;5.47;1.52;;;;;;;;;;5120718;28;20134;-55
2023/10/28 12:45:23;;;;;;;4.32;1.63;;;;;;;;;;5121025;28;20024;-57
2023/10/28 12:47:50;;;;;;;5.28;1.48;;;;;;;;;;5121419;28;20065;-58
2023/10/28 12:50:18;;;;;;;2.90;1.20;;;;;;;;;;5120892;28;20054;-55
2023/10/28 12:52:45;;;;;;;3.70;1.50;;;;;;;;;;5121044;28;20331;-54
2023/10/28 12:55:12;;;;;;;5.72;1.42;;;;;;;;;;5108082;28;20055;-52
2023/10/28 12:57:38;;;;;;;3.75;1.50;;;;;;;;;;5106989;28;20058;-48
2023/10/28 13:00:10;;;;;;;3.75;1.38;;;;;;;;;;5106933;28;20087;-51
2023/10/28 13:02:37;;;;;;;5.72;1.58;;;;;;;;;;5107101;28;20043;-43
2023/10/28 13:05:06;;;;;;;5.75;1.58;;;;;;;;;;5107080;28;20019;-44
2023/10/28 13:07:34;;;;;;;4.35;1.20;;;;;;;;;;5107085;28;20071;-44
2023/10/28 13:10:01;;;;;;;4.63;1.90;;;;;;;;;;5106859;28;20114;-44
2023/10/28 13:12:28;;;;;;;4.10;1.10;;;;;;;;;;5107096;28;20070;-46
2023/10/28 13:14:55;;;;;;;4.78;1.45;;;;;;;;;;5106572;28;20059;-45
2023/10/28 13:17:21;;;;;;;3.75;1.40;;;;;;;;;;5106623;28;20055;-46
2023/10/28 13:19:50;;;;;;;4.57;1.52;;;;;;;;;;5106592;28;20035;-49
2023/10/28 13:22:17;;;;;;;5.03;1.40;;;;;;;;;;5106543;28;20350;-45
2023/10/28 13:24:43;;;;;;;5.10;1.40;;;;;;;;;;5106686;28;20024;-50
2023/10/28 13:27:11;;;;;;;2.90;1.48;;;;;;;;;;5106614;28;20212;-47
2023/10/28 13:29:38;;;;;;;4.65;1.50;;;;;;;;;;5106347;28;20020;-51
2023/10/28 13:32:06;;;;;;;4.72;1.30;;;;;;;;;;5106525;28;20042;-49
2023/10/28 13:34:33;;;;;;;5.75;1.60;;;;;;;;;;5088933;28;20019;-50
2023/10/28 13:36:59;;;;;;;10.93;2.10;;;;;;;;;;5106098;28;20212;-51
2023/10/28 13:39:27;;;;;;;5.40;1.60;;;;;;;;;;5106807;28;20036;-52
2023/10/28 13:41:54;;;;;;;5.50;1.60;;;;;;;;;;5106756;28;20100;-56
2023/10/28 13:44:21;;;;;;;6.00;1.90;;;;;;;;;;5106846;28;20032;-56
2023/10/28 13:46:47;;;;;;;3.95;1.50;;;;;;;;;;5106557;28;20036;-56
2023/10/28 13:49:16;;;;;;;4.55;1.65;;;;;;;;;;5107020;28;20043;-52
2023/10/28 13:51:43;;;;;;;7.50;1.50;;;;;;;;;;5105936;28;20322;-52
2023/10/28 13:54:10;;;;;;;8.27;1.52;;;;;;;;;;5106007;28;20044;-53
2023/10/28 13:56:37;;;;;;;3.30;1.38;;;;;;;;;;5105956;28;20024;-48
2023/10/28 13:59:07;;;;;;;5.13;1.27;;;;;;;;;;5105823;28;20036;-50
2023/10/28 14:01:34;;;;;;;3.55;1.42;;;;;;;;;;5099083;28;20029;-51
2023/10/28 14:04:01;;;;;;;3.65;1.20;;;;;;;;;;5095055;28;20029;-45
2023/10/28 14:06:28;;;;;;;2.90;1.42;;;;;;;;;;5084456;28;20051;-44
2023/10/28 14:08:55;;;;;;;3.70;1.63;;;;;;;;;;5085399;28;20027;-44
2023/10/28 14:11:26;;;;;;;5.50;1.77;;;;;;;;;;5085505;28;20076;-48
2023/10/28 14:13:54;;;;;;;3.38;2.05;;;;;;;;;;5085398;28;20044;-46
2023/10/28 14:16:24;;;;;;;5.60;2.50;;;;;;;;;;5087826;28;20016;-51
2023/10/28 14:18:50;;;;;;;6.03;4.63;;;;;;;;;;5086290;28;20182;-46
2023/10/28 14:21:19;;;;;;;8.80;6.30;;;;;;;;;;5100079;28;20040;-48
2023/10/28 14:23:46;;;;;;;11.93;8.02;;;;;;;;;;5085739;28;20051;-48
2023/10/28 14:26:14;;;;;;;4.82;3.40;;;;;;;;;;5085144;28;20016;-49
2023/10/28 14:28:40;;;;;;;18.80;15.25;;;;;;;;;;5099708;28;20063;-47
2023/10/28 14:31:07;;;;;;;17.67;11.82;;;;;;;;;;5105388;28;20016;-52
2023/10/28 14:33:34;;;;;;;15.95;11.95;;;;;;;;;;5105511;28;20030;-50
2023/10/28 14:36:07;;;;;;;11.02;8.93;;;;;;;;;;5104668;28;20032;-47
2023/10/28 14:38:34;;;;;;;13.05;8.10;;;;;;;;;;5101950;28;20062;-50
2023/10/28 14:41:00;;;;;;;14.07;5.75;;;;;;;;;;5084552;28;20040;-49
2023/10/28 14:43:27;;;;;;;9.68;5.47;;;;;;;;;;5084247;28;20356;-51
2023/10/28 14:45:54;;;;;;;11.27;4.82;;;;;;;;;;5084586;28;20020;-51
2023/10/28 14:48:25;;;;;;;6.68;4.32;;;;;;;;;;5084840;28;20029;-48
2023/10/28 14:50:52;;;;;;;6.53;2.88;;;;;;;;;;5084404;28;20025;-49
2023/10/28 14:53:19;;;;;;;6.93;3.03;;;;;;;;;;5084346;28;20304;-51
2023/10/28 14:55:46;;;;;;;5.43;2.90;;;;;;;;;;5082523;28;20032;-48